Time;durP1;ratioP1;P1;durP2;ratioP2;P2;SDS_P1;SDS_P2;PMS_P1;PMS_P2;Temp;Humidity;BMP_temperature;BMP_pressure;BME280_temperature;BME280_humidity;BME280_pressure;Samples;Min_cycle;Max_cycle;Signal;HPM_P1;HPM_P2
2023/12/03 00:01:36;;;;;;;19.05;12.43;;;;;;;;;;4950213;29;20035;-73
2023/12/03 00:04:02;;;;;;;19.80;12.27;;;;;;;;;;4964533;28;20121;-72
2023/12/03 00:06:28;;;;;;;16.50;10.88;;;;;;;;;;4950096;28;20031;-73
2023/12/03 00:08:55;;;;;;;8.88;7.95;;;;;;;;;;4943951;28;20043;-73
2023/12/03 00:11:21;;;;;;;14.35;10.13;;;;;;;;;;4964523;28;20030;-72
2023/12/03 00:13:48;;;;;;;10.30;6.47;;;;;;;;;;4945788;28;20047;-72
2023/12/03 00:16:14;;;;;;;17.27;10.85;;;;;;;;;;4964915;28;20043;-73
2023/12/03 00:18:40;;;;;;;9.63;7.75;;;;;;;;;;4965251;28;20121;-73
2023/12/03 00:21:06;;;;;;;11.57;7.38;;;;;;;;;;4958770;28;20091;-73
2023/12/03 00:23:32;;;;;;;14.10;9.85;;;;;;;;;;4926166;28;20056;-73
2023/12/03 00:25:58;;;;;;;15.75;8.82;;;;;;;;;;4943905;29;20066;-72
2023/12/03 00:28:24;;;;;;;7.35;6.68;;;;;;;;;;4943444;29;20040;-73
2023/12/03 00:30:50;;;;;;;13.05;9.48;;;;;;;;;;4907732;29;20043;-73
2023/12/03 00:33:16;;;;;;;24.08;13.93;;;;;;;;;;4947208;29;20528;-71
2023/12/03 00:35:42;;;;;;;20.10;12.73;;;;;;;;;;4939160;28;20463;-73
2023/12/03 00:38:08;;;;;;;18.90;13.80;;;;;;;;;;4948159;29;20115;-72
2023/12/03 00:40:34;;;;;;;9.48;8.10;;;;;;;;;;4927666;29;20043;-72
2023/12/03 00:43:00;;;;;;;9.32;8.35;;;;;;;;;;4947240;29;20102;-72
2023/12/03 00:45:26;;;;;;;14.25;8.43;;;;;;;;;;4943880;29;20051;-73
2023/12/03 00:47:52;;;;;;;8.20;6.95;;;;;;;;;;4947012;29;20035;-71
2023/12/03 00:50:18;;;;;;;13.48;10.77;;;;;;;;;;4946726;29;20509;-72
2023/12/03 00:52:44;;;;;;;17.45;10.55;;;;;;;;;;4946151;29;20043;-71
2023/12/03 00:55:10;;;;;;;7.30;6.55;;;;;;;;;;4947973;29;20042;-72
2023/12/03 00:57:36;;;;;;;15.75;11.60;;;;;;;;;;4930374;29;20055;-72
2023/12/03 01:00:02;;;;;;;15.85;11.32;;;;;;;;;;4949480;29;20043;-72
2023/12/03 01:02:30;;;;;;;12.20;9.13;;;;;;;;;;4927116;29;20043;-72
2023/12/03 01:04:57;;;;;;;21.17;11.07;;;;;;;;;;4946188;29;20154;-72
2023/12/03 01:07:22;;;;;;;16.65;11.43;;;;;;;;;;4945634;29;20127;-72
2023/12/03 01:09:49;;;;;;;10.95;8.80;;;;;;;;;;4926218;29;20067;-73
2023/12/03 01:12:15;;;;;;;8.55;7.78;;;;;;;;;;4933979;29;20039;-72
2023/12/03 01:14:40;;;;;;;14.27;9.98;;;;;;;;;;4946407;29;20506;-72
2023/12/03 01:17:06;;;;;;;23.77;14.32;;;;;;;;;;4948264;29;20149;-73
2023/12/03 01:19:33;;;;;;;15.00;10.70;;;;;;;;;;4934242;29;20395;-73
2023/12/03 01:21:59;;;;;;;14.15;11.75;;;;;;;;;;4951449;28;20092;-72
2023/12/03 01:24:24;;;;;;;13.57;8.55;;;;;;;;;;4964217;28;20665;-73
2023/12/03 01:26:51;;;;;;;15.80;9.10;;;;;;;;;;4945181;28;20039;-74
2023/12/03 01:29:17;;;;;;;22.38;14.27;;;;;;;;;;4948514;28;20046;-74
2023/12/03 01:31:43;;;;;;;26.05;15.48;;;;;;;;;;4963080;28;20035;-73
2023/12/03 01:34:09;;;;;;;10.90;8.10;;;;;;;;;;4948872;28;20034;-74
2023/12/03 01:36:35;;;;;;;24.23;14.02;;;;;;;;;;4969384;28;20050;-74
2023/12/03 01:39:01;;;;;;;23.10;13.73;;;;;;;;;;4945761;28;20380;-74
2023/12/03 01:41:27;;;;;;;15.32;10.70;;;;;;;;;;4963924;28;20046;-75
2023/12/03 01:43:53;;;;;;;12.85;9.82;;;;;;;;;;4947202;28;20055;-73
2023/12/03 01:46:22;;;;;;;14.80;10.38;;;;;;;;;;4965357;28;20114;-74
2023/12/03 01:48:49;;;;;;;17.00;11.45;;;;;;;;;;4966226;28;20074;-74
2023/12/03 01:51:15;;;;;;;19.88;13.85;;;;;;;;;;4962346;28;20125;-75
2023/12/03 01:53:41;;;;;;;14.43;9.82;;;;;;;;;;4945062;28;20043;-74
2023/12/03 01:56:08;;;;;;;10.80;9.10;;;;;;;;;;4966411;28;20131;-74
2023/12/03 01:58:34;;;;;;;25.20;12.50;;;;;;;;;;4949893;29;20529;-74
2023/12/03 02:01:00;;;;;;;22.85;12.07;;;;;;;;;;4968587;28;20141;-75
2023/12/03 02:03:27;;;;;;;16.45;10.32;;;;;;;;;;4967744;28;20050;-75
2023/12/03 02:06:03;;;;;;;28.23;19.58;;;;;;;;;;4962410;28;20065;-72
2023/12/03 02:08:29;;;;;;;24.27;13.48;;;;;;;;;;4963323;28;20138;-72
2023/12/03 02:10:55;;;;;;;21.30;13.95;;;;;;;;;;4964576;28;20071;-73
2023/12/03 02:13:21;;;;;;;19.73;11.60;;;;;;;;;;4947443;29;20043;-73
2023/12/03 02:15:47;;;;;;;15.63;11.02;;;;;;;;;;4966107;28;20039;-73
2023/12/03 02:18:12;;;;;;;15.63;11.38;;;;;;;;;;4944967;28;20054;-72
2023/12/03 02:20:58;;;;;;;14.35;10.45;;;;;;;;;;4954616;28;20051;-73
2023/12/03 02:23:27;;;;;;;17.17;12.45;;;;;;;;;;4933735;28;20397;-73
2023/12/03 02:25:53;;;;;;;24.80;13.35;;;;;;;;;;4964307;28;20045;-72
2023/12/03 02:28:19;;;;;;;21.30;13.68;;;;;;;;;;4964794;28;20035;-73
2023/12/03 02:30:45;;;;;;;28.08;15.90;;;;;;;;;;4947736;28;20035;-73
2023/12/03 02:33:11;;;;;;;28.20;16.85;;;;;;;;;;4968368;28;20105;-73
2023/12/03 02:35:37;;;;;;;19.73;11.98;;;;;;;;;;4951729;28;20039;-74
2023/12/03 02:38:03;;;;;;;24.80;13.88;;;;;;;;;;4971988;28;21543;-73
2023/12/03 02:40:33;;;;;;;17.02;8.52;;;;;;;;;;4945084;29;20054;-74
2023/12/03 02:42:59;;;;;;;15.80;12.18;;;;;;;;;;4965298;28;20053;-73
2023/12/03 02:45:25;;;;;;;17.10;10.40;;;;;;;;;;4962852;28;20074;-74
2023/12/03 02:47:51;;;;;;;23.27;12.80;;;;;;;;;;4960832;28;20079;-73
2023/12/03 02:50:17;;;;;;;14.60;9.63;;;;;;;;;;4947920;28;20050;-73
2023/12/03 02:52:43;;;;;;;27.23;18.05;;;;;;;;;;4965101;28;20061;-72
2023/12/03 02:55:09;;;;;;;19.58;12.02;;;;;;;;;;4961800;28;20039;-73
2023/12/03 02:57:35;;;;;;;25.40;14.23;;;;;;;;;;4946232;29;20083;-73
2023/12/03 03:00:02;;;;;;;30.80;18.85;;;;;;;;;;4941082;28;20046;-72
2023/12/03 03:02:32;;;;;;;28.50;18.10;;;;;;;;;;4970947;28;20035;-73
2023/12/03 03:04:57;;;;;;;12.55;9.65;;;;;;;;;;4960469;28;20141;-74
2023/12/03 03:07:23;;;;;;;13.15;9.10;;;;;;;;;;4961525;28;20118;-74
2023/12/03 03:09:50;;;;;;;19.02;10.45;;;;;;;;;;4962757;28;20529;-73
2023/12/03 03:12:16;;;;;;;21.58;13.23;;;;;;;;;;4949533;29;20027;-74
2023/12/03 03:14:42;;;;;;;19.40;11.85;;;;;;;;;;4960570;28;20093;-73
2023/12/03 03:17:08;;;;;;;21.40;13.38;;;;;;;;;;4933109;29;20032;-74
2023/12/03 03:19:34;;;;;;;17.05;12.73;;;;;;;;;;4963414;28;20047;-74
2023/12/03 03:22:00;;;;;;;12.13;9.82;;;;;;;;;;4951892;28;20056;-74
2023/12/03 03:24:26;;;;;;;21.65;14.75;;;;;;;;;;4961669;28;20129;-74
2023/12/03 03:26:52;;;;;;;26.40;16.33;;;;;;;;;;4948530;28;20128;-74
2023/12/03 03:29:18;;;;;;;10.20;8.75;;;;;;;;;;4967449;28;20042;-73
2023/12/03 03:31:44;;;;;;;19.38;13.98;;;;;;;;;;4963840;28;20031;-74
2023/12/03 03:34:10;;;;;;;14.55;8.88;;;;;;;;;;4963087;28;20133;-74
2023/12/03 03:36:36;;;;;;;25.77;13.70;;;;;;;;;;4943514;28;20458;-74
2023/12/03 03:39:02;;;;;;;19.55;13.50;;;;;;;;;;4952566;28;20425;-75
2023/12/03 03:41:28;;;;;;;23.25;13.45;;;;;;;;;;4966418;28;20043;-74
2023/12/03 03:43:54;;;;;;;16.35;8.63;;;;;;;;;;4952373;28;20047;-74
2023/12/03 03:46:20;;;;;;;13.05;8.40;;;;;;;;;;4969521;28;20043;-74
2023/12/03 03:48:46;;;;;;;12.48;9.40;;;;;;;;;;4961457;28;20049;-74
2023/12/03 03:51:13;;;;;;;18.52;13.23;;;;;;;;;;4945950;29;20061;-73
2023/12/03 03:53:39;;;;;;;18.02;12.48;;;;;;;;;;4946841;28;20050;-74
2023/12/03 03:56:08;;;;;;;22.13;13.35;;;;;;;;;;4953461;28;20543;-74
2023/12/03 03:58:35;;;;;;;17.30;11.65;;;;;;;;;;4967097;28;20035;-74
2023/12/03 04:01:06;;;;;;;17.73;11.82;;;;;;;;;;4962825;28;20698;-73
2023/12/03 04:03:32;;;;;;;16.27;10.68;;;;;;;;;;4943974;29;20480;-74
2023/12/03 04:06:02;;;;;;;34.35;18.10;;;;;;;;;;4964290;28;20102;-74
2023/12/03 04:08:28;;;;;;;15.43;8.95;;;;;;;;;;4961876;28;20105;-73
2023/12/03 04:10:54;;;;;;;27.35;15.27;;;;;;;;;;4958645;28;20462;-74
2023/12/03 04:13:20;;;;;;;36.78;20.42;;;;;;;;;;4962058;28;20512;-75
2023/12/03 04:15:46;;;;;;;18.60;12.68;;;;;;;;;;4932825;28;20130;-73
2023/12/03 04:18:12;;;;;;;19.40;12.13;;;;;;;;;;4966386;28;20125;-73
2023/12/03 04:20:38;;;;;;;24.42;15.55;;;;;;;;;;4971601;28;20042;-74
2023/12/03 04:23:04;;;;;;;39.15;20.58;;;;;;;;;;4918387;29;20051;-74
2023/12/03 04:25:30;;;;;;;23.48;15.52;;;;;;;;;;4945075;28;20529;-75
2023/12/03 04:27:56;;;;;;;15.23;10.80;;;;;;;;;;4962441;28;20047;-73
2023/12/03 04:30:23;;;;;;;26.67;17.20;;;;;;;;;;4961742;28;20043;-73
2023/12/03 04:32:49;;;;;;;19.45;12.35;;;;;;;;;;4963505;28;20043;-74
2023/12/03 04:35:15;;;;;;;18.90;12.73;;;;;;;;;;4959510;28;20079;-73
2023/12/03 04:37:41;;;;;;;10.82;8.27;;;;;;;;;;4958458;28;20047;-74
2023/12/03 04:40:09;;;;;;;24.13;16.10;;;;;;;;;;4946144;28;20045;-72
2023/12/03 04:42:35;;;;;;;17.08;13.30;;;;;;;;;;4966797;28;20046;-72
2023/12/03 04:45:02;;;;;;;23.48;12.63;;;;;;;;;;4914792;28;20055;-73
2023/12/03 04:47:32;;;;;;;18.67;13.07;;;;;;;;;;4961608;28;20413;-72
2023/12/03 04:49:58;;;;;;;21.67;14.40;;;;;;;;;;4958704;28;20051;-72
2023/12/03 04:52:25;;;;;;;29.85;15.68;;;;;;;;;;4960550;28;20042;-73
2023/12/03 04:54:51;;;;;;;20.20;14.07;;;;;;;;;;4961134;28;20043;-72
2023/12/03 04:57:17;;;;;;;21.30;15.23;;;;;;;;;;4962175;28;20114;-73
2023/12/03 04:59:43;;;;;;;34.83;19.77;;;;;;;;;;4963344;28;20043;-73
2023/12/03 05:02:09;;;;;;;22.75;12.75;;;;;;;;;;4959429;28;20034;-73
2023/12/03 05:04:35;;;;;;;29.25;17.73;;;;;;;;;;4956334;28;20061;-73
2023/12/03 05:07:01;;;;;;;21.95;12.90;;;;;;;;;;4936175;28;20101;-73
2023/12/03 05:09:27;;;;;;;15.93;11.98;;;;;;;;;;4952279;28;20493;-72
2023/12/03 05:11:53;;;;;;;15.15;10.18;;;;;;;;;;4935395;29;20047;-72
2023/12/03 05:14:19;;;;;;;26.98;14.73;;;;;;;;;;4952538;29;20051;-73
2023/12/03 05:16:45;;;;;;;27.27;14.55;;;;;;;;;;4951864;29;20132;-72
2023/12/03 05:19:11;;;;;;;19.60;10.73;;;;;;;;;;4950093;28;20133;-72
2023/12/03 05:21:37;;;;;;;22.48;14.60;;;;;;;;;;4961589;28;20043;-72
2023/12/03 05:24:03;;;;;;;23.23;12.75;;;;;;;;;;4984221;28;20054;-72
2023/12/03 05:26:29;;;;;;;52.53;28.63;;;;;;;;;;4965437;28;20042;-71
2023/12/03 05:28:56;;;;;;;37.50;20.00;;;;;;;;;;4964998;28;20049;-73
2023/12/03 05:31:22;;;;;;;37.47;19.58;;;;;;;;;;4979058;28;20413;-73
2023/12/03 05:33:48;;;;;;;14.75;9.55;;;;;;;;;;4961128;28;20038;-73
2023/12/03 05:36:23;;;;;;;21.90;13.68;;;;;;;;;;4946712;29;20496;-80
2023/12/03 06:12:38;;;;;;;13.48;10.07;;;;;;;;;;5080180;23;20050;-84
2023/12/03 06:15:05;;;;;;;51.10;26.85;;;;;;;;;;5224078;23;20070;-78
2023/12/03 06:17:31;;;;;;;36.75;21.20;;;;;;;;;;4968780;28;20059;-81
2023/12/03 06:19:57;;;;;;;34.67;18.15;;;;;;;;;;5741209;23;20240;-79
2023/12/03 06:25:37;;;;;;;25.83;12.00;;;;;;;;;;5822541;23;20039;-83
2023/12/03 06:30:59;;;;;;;29.90;15.40;;;;;;;;;;5247068;23;20050;-82
2023/12/03 06:36:21;;;;;;;35.50;18.25;;;;;;;;;;5292964;23;20042;-83
2023/12/03 06:38:47;;;;;;;35.13;20.17;;;;;;;;;;5749638;23;20372;-81
2023/12/03 06:55:53;;;;;;;50.70;22.10;;;;;;;;;;5189527;23;20129;-84
2023/12/03 07:52:04;;;;;;;33.75;17.33;;;;;;;;;;4945635;23;20055;-81
2023/12/03 07:54:30;;;;;;;45.25;22.50;;;;;;;;;;4939711;29;20067;-83
2023/12/03 07:56:57;;;;;;;31.20;16.98;;;;;;;;;;4953872;29;20044;-80
2023/12/03 07:59:23;;;;;;;35.80;18.75;;;;;;;;;;4961709;29;20039;-79
2023/12/03 08:01:49;;;;;;;39.65;20.60;;;;;;;;;;4957568;29;20046;-78
2023/12/03 08:04:15;;;;;;;35.65;19.92;;;;;;;;;;4960290;29;20142;-78
2023/12/03 08:06:41;;;;;;;57.75;29.55;;;;;;;;;;4952558;29;20070;-77
2023/12/03 08:09:07;;;;;;;42.03;18.92;;;;;;;;;;4925586;29;20077;-79
2023/12/03 08:11:33;;;;;;;53.80;25.80;;;;;;;;;;4944741;29;20133;-76
2023/12/03 08:13:59;;;;;;;26.15;15.82;;;;;;;;;;4957900;29;20055;-75
2023/12/03 08:16:26;;;;;;;50.45;25.83;;;;;;;;;;4938395;29;20094;-74
2023/12/03 08:18:52;;;;;;;39.33;21.25;;;;;;;;;;4950652;29;20191;-77
2023/12/03 08:21:18;;;;;;;39.78;20.25;;;;;;;;;;4953467;28;20077;-75
2023/12/03 08:23:43;;;;;;;47.67;27.35;;;;;;;;;;4941980;29;20047;-78
2023/12/03 08:26:09;;;;;;;19.13;13.85;;;;;;;;;;4938154;29;20036;-80
2023/12/03 08:28:35;;;;;;;40.30;22.42;;;;;;;;;;4955027;29;20381;-76
2023/12/03 08:31:02;;;;;;;33.88;20.30;;;;;;;;;;4952929;29;20067;-77
2023/12/03 08:33:27;;;;;;;34.70;19.50;;;;;;;;;;4938035;29;20035;-77
2023/12/03 08:35:53;;;;;;;48.22;29.30;;;;;;;;;;4952426;29;20039;-77
2023/12/03 08:38:19;;;;;;;41.50;22.23;;;;;;;;;;4958467;28;20142;-78
2023/12/03 08:40:45;;;;;;;31.67;16.50;;;;;;;;;;4958487;28;20074;-77
2023/12/03 08:43:11;;;;;;;20.45;11.85;;;;;;;;;;4965323;29;20146;-77
2023/12/03 08:45:38;;;;;;;46.10;30.13;;;;;;;;;;4929284;29;20178;-77
2023/12/03 08:48:04;;;;;;;25.63;14.07;;;;;;;;;;4949811;29;20051;-78
2023/12/03 08:50:31;;;;;;;20.23;11.55;;;;;;;;;;4936318;29;20043;-78
2023/12/03 08:52:57;;;;;;;14.07;10.77;;;;;;;;;;4930697;29;20046;-77
2023/12/03 08:55:24;;;;;;;23.90;14.80;;;;;;;;;;4951845;28;20054;-87
2023/12/03 08:57:50;;;;;;;19.75;12.75;;;;;;;;;;5216444;23;20054;-76
2023/12/03 09:00:16;;;;;;;29.63;16.13;;;;;;;;;;4971627;28;20094;-77
2023/12/03 09:02:46;;;;;;;27.55;16.27;;;;;;;;;;4975845;28;20047;-77
2023/12/03 09:05:12;;;;;;;29.20;16.15;;;;;;;;;;4978356;28;20054;-78
2023/12/03 09:07:38;;;;;;;20.98;12.27;;;;;;;;;;4970928;28;20031;-77
2023/12/03 09:10:04;;;;;;;18.65;12.57;;;;;;;;;;4976231;28;20049;-74
2023/12/03 09:12:30;;;;;;;30.73;17.67;;;;;;;;;;4961245;28;20401;-75
2023/12/03 09:14:56;;;;;;;26.38;16.83;;;;;;;;;;4976442;28;20446;-76
2023/12/03 09:17:22;;;;;;;22.45;14.02;;;;;;;;;;4975830;28;20043;-76
2023/12/03 09:19:49;;;;;;;16.75;11.52;;;;;;;;;;4962669;28;20038;-75
2023/12/03 09:22:15;;;;;;;20.88;13.20;;;;;;;;;;4995505;28;20073;-76
2023/12/03 09:24:41;;;;;;;36.10;22.23;;;;;;;;;;4986332;28;20125;-74
2023/12/03 09:27:07;;;;;;;29.70;17.67;;;;;;;;;;4986313;28;20050;-78
2023/12/03 09:29:33;;;;;;;28.75;19.40;;;;;;;;;;4971495;28;20038;-75
2023/12/03 09:31:59;;;;;;;19.95;11.38;;;;;;;;;;4963980;28;20050;-81
2023/12/03 10:18:56;;;;;;;19.17;11.50;;;;;;;;;;4989637;28;20055;-77
2023/12/03 10:21:24;;;;;;;12.02;8.98;;;;;;;;;;4982876;28;20050;-79
2023/12/03 10:23:57;;;;;;;23.70;13.27;;;;;;;;;;4948916;28;20035;-79
2023/12/03 10:26:23;;;;;;;14.02;9.60;;;;;;;;;;4960133;28;20417;-78
2023/12/03 10:28:49;;;;;;;11.52;7.75;;;;;;;;;;4945698;29;20035;-81
2023/12/03 10:31:15;;;;;;;15.30;9.68;;;;;;;;;;4942951;28;20075;-78
2023/12/03 10:33:44;;;;;;;18.67;9.93;;;;;;;;;;4958657;28;20469;-79
2023/12/03 10:36:11;;;;;;;21.80;14.65;;;;;;;;;;4964867;28;20596;-75
2023/12/03 10:38:40;;;;;;;15.23;11.15;;;;;;;;;;4975501;28;20046;-80
2023/12/03 10:41:09;;;;;;;23.88;12.23;;;;;;;;;;4971952;28;20046;-79
2023/12/03 10:43:38;;;;;;;23.75;14.35;;;;;;;;;;4981217;28;20058;-78
2023/12/03 10:46:05;;;;;;;15.77;10.68;;;;;;;;;;4955793;28;20047;-81
2023/12/03 10:48:33;;;;;;;24.23;14.55;;;;;;;;;;4987496;28;20117;-80
2023/12/03 10:51:04;;;;;;;20.98;13.00;;;;;;;;;;4958832;28;20101;-79
2023/12/03 10:53:31;;;;;;;10.60;7.45;;;;;;;;;;4988249;28;20045;-81
2023/12/03 10:55:57;;;;;;;8.48;6.97;;;;;;;;;;5002294;28;20051;-79
2023/12/03 10:58:23;;;;;;;22.25;10.48;;;;;;;;;;4961244;28;20034;-80
2023/12/03 11:00:51;;;;;;;19.75;12.30;;;;;;;;;;4975672;28;20038;-79
2023/12/03 11:03:20;;;;;;;38.80;19.80;;;;;;;;;;4976989;28;20027;-80
2023/12/03 11:05:52;;;;;;;20.75;12.82;;;;;;;;;;4977283;28;20147;-79
2023/12/03 11:08:22;;;;;;;19.23;10.73;;;;;;;;;;4947384;28;20042;-80
2023/12/03 11:10:50;;;;;;;23.05;16.45;;;;;;;;;;5005063;28;20053;-81
2023/12/03 11:13:16;;;;;;;12.55;7.65;;;;;;;;;;4993360;28;20119;-80
2023/12/03 11:15:42;;;;;;;19.52;14.68;;;;;;;;;;4969356;29;20074;-82
2023/12/03 11:18:08;;;;;;;16.02;7.90;;;;;;;;;;4972729;28;20055;-82
2023/12/03 11:20:35;;;;;;;20.02;13.77;;;;;;;;;;4975189;28;20070;-84
2023/12/03 11:23:01;;;;;;;8.80;6.50;;;;;;;;;;4972862;28;20103;-81
2023/12/03 11:25:28;;;;;;;9.65;7.32;;;;;;;;;;4969860;28;20055;-82
2023/12/03 11:27:54;;;;;;;10.55;8.75;;;;;;;;;;4949268;29;20059;-81
2023/12/03 11:30:37;;;;;;;11.35;8.73;;;;;;;;;;4984714;28;20054;-80
2023/12/03 11:33:10;;;;;;;20.77;11.73;;;;;;;;;;4974178;28;20061;-81
2023/12/03 11:35:36;;;;;;;7.00;6.30;;;;;;;;;;4974546;28;20039;-80
2023/12/03 11:38:02;;;;;;;17.77;10.73;;;;;;;;;;4950347;28;20178;-80
2023/12/03 11:40:33;;;;;;;6.85;5.85;;;;;;;;;;4994642;28;20037;-82
2023/12/03 11:42:59;;;;;;;9.52;6.50;;;;;;;;;;4993706;28;20138;-82
2023/12/03 11:45:25;;;;;;;11.57;8.88;;;;;;;;;;4992015;28;20062;-81
2023/12/03 11:48:07;;;;;;;12.13;9.15;;;;;;;;;;4974848;28;20026;-81
2023/12/03 11:50:40;;;;;;;8.45;6.20;;;;;;;;;;4992242;28;20070;-81
2023/12/03 11:53:07;;;;;;;14.20;12.43;;;;;;;;;;4976393;28;20035;-82
2023/12/03 11:55:34;;;;;;;6.65;4.78;;;;;;;;;;4971351;28;20051;-82
2023/12/03 11:58:01;;;;;;;12.90;8.45;;;;;;;;;;4977330;28;20064;-81
2023/12/03 12:00:27;;;;;;;18.58;12.43;;;;;;;;;;4976225;28;20047;-81
2023/12/03 12:02:53;;;;;;;12.25;8.73;;;;;;;;;;4974173;28;20049;-82
2023/12/03 12:05:19;;;;;;;14.15;10.98;;;;;;;;;;4989507;28;20065;-83
2023/12/03 12:07:58;;;;;;;14.32;11.00;;;;;;;;;;4992180;28;20054;-81
2023/12/03 12:10:25;;;;;;;11.70;10.23;;;;;;;;;;4973449;28;20055;-81
2023/12/03 20:05:01;;;;;;;9.60;7.82;;;;;;;;;;1432343;26;20067;-76
2023/12/03 20:07:29;;;;;;;8.18;7.35;;;;;;;;;;4947224;28;20635;-76
2023/12/03 20:09:55;;;;;;;11.30;9.60;;;;;;;;;;4964512;28;20569;-76
2023/12/03 20:12:23;;;;;;;10.45;9.23;;;;;;;;;;4944299;28;20070;-76
2023/12/03 20:14:49;;;;;;;8.30;6.68;;;;;;;;;;4932882;28;20136;-78
2023/12/03 20:17:15;;;;;;;9.57;7.75;;;;;;;;;;4980493;28;20490;-78
2023/12/03 20:19:41;;;;;;;9.65;7.32;;;;;;;;;;4977514;28;20055;-77
2023/12/03 20:22:07;;;;;;;10.65;8.48;;;;;;;;;;4970312;28;20046;-76
2023/12/03 20:24:33;;;;;;;12.95;9.52;;;;;;;;;;4953058;28;20042;-75
2023/12/03 20:26:59;;;;;;;7.97;7.03;;;;;;;;;;4958897;28;20043;-75
2023/12/03 20:29:25;;;;;;;11.52;9.35;;;;;;;;;;4962881;28;20054;-76
2023/12/03 20:31:52;;;;;;;11.43;8.35;;;;;;;;;;4971744;28;20043;-76
2023/12/03 20:34:18;;;;;;;11.43;8.40;;;;;;;;;;4965065;28;20042;-75
2023/12/03 20:36:44;;;;;;;17.08;11.02;;;;;;;;;;4971570;28;20179;-76
2023/12/03 20:39:10;;;;;;;6.53;5.70;;;;;;;;;;4968167;28;20046;-75
2023/12/03 20:41:36;;;;;;;9.90;8.27;;;;;;;;;;4962670;28;20106;-77
2023/12/03 20:44:02;;;;;;;9.80;7.43;;;;;;;;;;4965853;28;20054;-78
2023/12/03 20:46:28;;;;;;;13.18;10.75;;;;;;;;;;4964035;28;20046;-76
2023/12/03 20:48:54;;;;;;;12.25;9.52;;;;;;;;;;4964657;28;20043;-77
2023/12/03 20:51:20;;;;;;;7.10;6.40;;;;;;;;;;4963724;28;20165;-78
2023/12/03 20:53:46;;;;;;;7.47;6.40;;;;;;;;;;4967481;28;20068;-79
2023/12/03 20:56:12;;;;;;;8.27;6.68;;;;;;;;;;4970118;28;20544;-79
2023/12/03 20:58:38;;;;;;;10.90;8.23;;;;;;;;;;4974204;28;20045;-78
2023/12/03 21:01:04;;;;;;;8.85;7.40;;;;;;;;;;4983677;28;20039;-80
2023/12/03 21:03:30;;;;;;;11.43;8.10;;;;;;;;;;4941381;28;20074;-80
2023/12/03 21:05:56;;;;;;;10.02;7.53;;;;;;;;;;4967994;28;20050;-80
2023/12/03 21:08:22;;;;;;;12.07;6.13;;;;;;;;;;4984018;28;20047;-79
2023/12/03 21:10:48;;;;;;;6.55;5.88;;;;;;;;;;4978591;28;20047;-80
2023/12/03 21:13:15;;;;;;;6.55;5.75;;;;;;;;;;4961677;28;20114;-79
2023/12/03 21:15:41;;;;;;;12.60;9.57;;;;;;;;;;4963096;28;20560;-78
2023/12/03 21:18:08;;;;;;;10.55;7.32;;;;;;;;;;4956299;28;20049;-79
2023/12/03 21:20:34;;;;;;;8.75;7.85;;;;;;;;;;4955402;28;20045;-80
2023/12/03 21:23:03;;;;;;;6.28;5.22;;;;;;;;;;4971748;28;20043;-79
2023/12/03 21:25:30;;;;;;;7.25;5.82;;;;;;;;;;4979388;28;20142;-83
2023/12/03 21:27:58;;;;;;;8.75;7.50;;;;;;;;;;4968327;28;20043;-82
2023/12/03 21:30:25;;;;;;;3.92;3.33;;;;;;;;;;4971945;28;20043;-81
2023/12/03 21:32:51;;;;;;;11.23;9.07;;;;;;;;;;4974218;28;20042;-80
2023/12/03 21:35:17;;;;;;;8.13;6.72;;;;;;;;;;4971621;28;20043;-78
2023/12/03 21:37:44;;;;;;;9.70;6.40;;;;;;;;;;4983783;28;20422;-79
2023/12/03 21:40:13;;;;;;;6.80;5.93;;;;;;;;;;4978821;28;20043;-79
2023/12/03 21:42:40;;;;;;;5.35;4.50;;;;;;;;;;4952282;28;20551;-79
2023/12/03 21:45:06;;;;;;;7.43;6.10;;;;;;;;;;4970497;28;20050;-80
2023/12/03 21:47:33;;;;;;;7.82;6.25;;;;;;;;;;4962044;28;20498;-80
2023/12/03 21:49:59;;;;;;;4.53;4.15;;;;;;;;;;4977124;28;20035;-80
2023/12/03 21:52:25;;;;;;;8.18;7.38;;;;;;;;;;4981822;28;20050;-80
2023/12/03 21:54:51;;;;;;;9.20;7.22;;;;;;;;;;4965222;28;20050;-79
2023/12/03 21:57:17;;;;;;;6.78;6.03;;;;;;;;;;4956217;28;20043;-78
2023/12/03 21:59:43;;;;;;;5.50;5.00;;;;;;;;;;4974982;28;20039;-80
2023/12/03 22:02:10;;;;;;;5.75;4.47;;;;;;;;;;4972115;28;20074;-79
2023/12/03 22:04:37;;;;;;;6.80;6.10;;;;;;;;;;4979232;28;20039;-79
2023/12/03 22:07:03;;;;;;;6.82;6.25;;;;;;;;;;4963769;29;20126;-80
2023/12/03 22:09:29;;;;;;;8.75;6.28;;;;;;;;;;4982920;28;20106;-81
2023/12/03 22:11:55;;;;;;;7.53;6.80;;;;;;;;;;4970418;28;20047;-80
2023/12/03 22:14:21;;;;;;;9.50;8.15;;;;;;;;;;4961697;28;20047;-80
2023/12/03 22:16:47;;;;;;;10.18;7.75;;;;;;;;;;4954996;28;20135;-80
2023/12/03 22:19:13;;;;;;;10.68;8.05;;;;;;;;;;4975159;28;20043;-78
2023/12/03 22:21:39;;;;;;;11.90;10.23;;;;;;;;;;4947732;28;20058;-80
2023/12/03 22:24:05;;;;;;;10.77;7.03;;;;;;;;;;4951808;29;20043;-80
2023/12/03 22:26:31;;;;;;;7.35;6.07;;;;;;;;;;4987234;28;20062;-79
2023/12/03 22:28:57;;;;;;;9.65;7.35;;;;;;;;;;4961787;28;20035;-76
2023/12/03 22:31:24;;;;;;;8.10;7.32;;;;;;;;;;4981786;28;21476;-79
2023/12/03 22:33:50;;;;;;;12.60;9.35;;;;;;;;;;4985475;28;20050;-81
2023/12/03 22:36:15;;;;;;;14.98;11.48;;;;;;;;;;4988475;28;20050;-81
2023/12/03 22:38:41;;;;;;;15.07;11.10;;;;;;;;;;4986518;28;20058;-81
2023/12/03 22:41:08;;;;;;;9.00;6.90;;;;;;;;;;4980020;28;20027;-82
2023/12/03 22:43:34;;;;;;;13.10;10.43;;;;;;;;;;5089942;23;20051;-82
2023/12/03 22:46:00;;;;;;;17.88;12.48;;;;;;;;;;4977887;28;20039;-79
2023/12/03 22:48:26;;;;;;;14.27;10.48;;;;;;;;;;4977673;29;20024;-82
2023/12/03 22:50:53;;;;;;;22.85;16.00;;;;;;;;;;4997380;28;20030;-81
2023/12/03 22:53:18;;;;;;;21.60;14.48;;;;;;;;;;4995800;28;20043;-77
2023/12/03 22:55:45;;;;;;;19.63;14.25;;;;;;;;;;4967630;28;20047;-80
2023/12/03 22:58:11;;;;;;;17.15;13.27;;;;;;;;;;4986846;28;20045;-77
2023/12/03 23:00:37;;;;;;;10.05;8.45;;;;;;;;;;4970999;28;20066;-79
2023/12/03 23:03:03;;;;;;;11.35;10.27;;;;;;;;;;4982110;28;20129;-79
2023/12/03 23:05:29;;;;;;;10.63;9.52;;;;;;;;;;4970671;28;20050;-80
2023/12/03 23:07:55;;;;;;;11.70;10.10;;;;;;;;;;4970605;28;20047;-78
2023/12/03 23:10:21;;;;;;;8.85;5.28;;;;;;;;;;4963146;28;20031;-79
2023/12/03 23:12:47;;;;;;;10.07;7.18;;;;;;;;;;4976644;28;20049;-79
2023/12/03 23:15:13;;;;;;;9.85;7.45;;;;;;;;;;4977009;28;20326;-80
2023/12/03 23:17:39;;;;;;;4.68;4.32;;;;;;;;;;4977725;28;20071;-78
2023/12/03 23:20:05;;;;;;;7.88;6.07;;;;;;;;;;4990362;28;20047;-80
2023/12/03 23:22:31;;;;;;;8.65;7.78;;;;;;;;;;4963413;28;20094;-80
2023/12/03 23:24:57;;;;;;;8.90;8.07;;;;;;;;;;4989483;28;20059;-80
2023/12/03 23:27:23;;;;;;;8.13;6.70;;;;;;;;;;4989052;28;20057;-81
2023/12/03 23:29:50;;;;;;;9.20;8.15;;;;;;;;;;4971148;28;20046;-80
2023/12/03 23:32:16;;;;;;;12.88;6.85;;;;;;;;;;4990949;28;20053;-81
2023/12/03 23:34:42;;;;;;;10.88;5.85;;;;;;;;;;4973006;28;20039;-79
2023/12/03 23:37:08;;;;;;;6.15;5.53;;;;;;;;;;4976415;28;20031;-80
2023/12/03 23:39:34;;;;;;;5.57;5.00;;;;;;;;;;4989000;28;20035;-80
2023/12/03 23:42:00;;;;;;;5.63;4.72;;;;;;;;;;4984990;28;20043;-79
2023/12/03 23:44:26;;;;;;;4.93;4.20;;;;;;;;;;4991739;28;20054;-80
2023/12/03 23:46:52;;;;;;;5.60;4.20;;;;;;;;;;4991325;28;20057;-81
2023/12/03 23:49:18;;;;;;;9.20;4.43;;;;;;;;;;4991315;28;20035;-78
2023/12/03 23:51:44;;;;;;;3.03;2.83;;;;;;;;;;4993449;28;20046;-81
2023/12/03 23:54:11;;;;;;;8.05;5.63;;;;;;;;;;4989063;28;20039;-80
2023/12/03 23:56:37;;;;;;;6.72;6.07;;;;;;;;;;4991657;28;20039;-80
2023/12/03 23:59:03;;;;;;;6.72;6.07;;;;;;;;;;4940803;29;20048;-79
